Ute Mountain Indian Reservat, Colorado
Current Conditions -  °F | °C
As of 2:53 PM on Wednesday 26 Nov 2014 (Local Time) from KCEZ Reporting Station
Clear Clear  
Wind Chill: 57°   Ceiling: Unl
Heat Index: 57°   Visibility: 10mi
Dew Point: 23°   Wind: 15mph
Humidity: 27%   Direction: 310°NW
Pressure: 30.35"   Gusts: 21mph
Location:  37.1336°N, 108.707°W
Report Text: KCEZ 262153Z AUTO 31013G18KT 10SM CLR 14/M05 A3035 RMK AO2 SLP264 T01391050
Loading
Personal Weather Stations






























Interactive Weather Map New forecast layout! Learn more

10-Day Weather Forecast

Advertisements
Track Severe Weather on mobile